Terminal Aerodrome Forecast
Issued by NWS

Home | Current Version | Previous Version | Text Only | Print | Product List | Glossary On
Versions: 1 2 3 4 5 6 7 8 9 10 11 12 13 14 15 16 17
000
FTUS41 KPBZ 011100
TAFLBE
TAF
KLBE 011132Z 0112/0212 VRB03KT 6SM BR SCT100
      TEMPO 0112/0114 3SM BR SCT100
     FM011500 VRB03KT P6SM BKN050
     FM011800 18004KT P6SM VCTS BKN050CB
     FM020300 15004KT P6SM BKN035
     FM020800 00000KT 5SM BR BKN035=

USA.gov is the U.S. government's official web portal to all federal, state and local government web resources and services.